sensor_id;sensor_type;location;lat;lon;timestamp;P1;durP1;ratioP1;P2;durP2;ratioP2
70850;SDS011;58475;49.662;9.636;2022-07-29T00:00:56;5.53;;;2.88;;
70850;SDS011;58475;49.662;9.636;2022-07-29T00:03:21;4.80;;;2.70;;
70850;SDS011;58475;49.662;9.636;2022-07-29T00:05:47;5.25;;;2.50;;
70850;SDS011;58475;49.662;9.636;2022-07-29T00:08:12;5.28;;;2.60;;
70850;SDS011;58475;49.662;9.636;2022-07-29T00:10:38;4.80;;;2.53;;
70850;SDS011;58475;49.662;9.636;2022-07-29T00:13:03;5.90;;;2.80;;
70850;SDS011;58475;49.662;9.636;2022-07-29T00:15:29;5.20;;;2.80;;
70850;SDS011;58475;49.662;9.636;2022-07-29T00:17:54;7.35;;;2.70;;
70850;SDS011;58475;49.662;9.636;2022-07-29T00:20:19;5.45;;;2.75;;
70850;SDS011;58475;49.662;9.636;2022-07-29T00:22:45;5.60;;;2.90;;
70850;SDS011;58475;49.662;9.636;2022-07-29T00:25:11;7.30;;;2.92;;
70850;SDS011;58475;49.662;9.636;2022-07-29T00:27:37;4.82;;;2.60;;
70850;SDS011;58475;49.662;9.636;2022-07-29T00:30:03;7.22;;;2.90;;
70850;SDS011;58475;49.662;9.636;2022-07-29T00:32:29;6.57;;;2.70;;
70850;SDS011;58475;49.662;9.636;2022-07-29T00:34:55;4.75;;;2.75;;
70850;SDS011;58475;49.662;9.636;2022-07-29T00:37:39;6.20;;;2.80;;
70850;SDS011;58475;49.662;9.636;2022-07-29T00:40:05;5.47;;;2.70;;
70850;SDS011;58475;49.662;9.636;2022-07-29T00:42:30;5.30;;;2.80;;
70850;SDS011;58475;49.662;9.636;2022-07-29T00:44:56;7.13;;;2.60;;
70850;SDS011;58475;49.662;9.636;2022-07-29T00:47:21;6.18;;;3.10;;
70850;SDS011;58475;49.662;9.636;2022-07-29T00:49:47;4.95;;;2.72;;
70850;SDS011;58475;49.662;9.636;2022-07-29T00:52:12;6.03;;;2.85;;
70850;SDS011;58475;49.662;9.636;2022-07-29T00:54:38;8.27;;;2.53;;
70850;SDS011;58475;49.662;9.636;2022-07-29T00:57:05;5.35;;;2.50;;
70850;SDS011;58475;49.662;9.636;2022-07-29T00:59:32;6.85;;;2.80;;
70850;SDS011;58475;49.662;9.636;2022-07-29T01:01:58;4.88;;;2.80;;
70850;SDS011;58475;49.662;9.636;2022-07-29T01:04:24;5.22;;;2.70;;
70850;SDS011;58475;49.662;9.636;2022-07-29T01:06:49;5.65;;;2.67;;
70850;SDS011;58475;49.662;9.636;2022-07-29T01:09:16;6.90;;;2.80;;
70850;SDS011;58475;49.662;9.636;2022-07-29T01:11:43;5.55;;;2.60;;
70850;SDS011;58475;49.662;9.636;2022-07-29T01:14:11;4.50;;;2.50;;
70850;SDS011;58475;49.662;9.636;2022-07-29T01:16:39;6.13;;;2.63;;
70850;SDS011;58475;49.662;9.636;2022-07-29T01:19:54;4.60;;;2.65;;
70850;SDS011;58475;49.662;9.636;2022-07-29T01:22:20;5.93;;;2.60;;
70850;SDS011;58475;49.662;9.636;2022-07-29T01:25:37;5.25;;;2.70;;
70850;SDS011;58475;49.662;9.636;2022-07-29T01:30:59;7.10;;;2.88;;
70850;SDS011;58475;49.662;9.636;2022-07-29T01:33:29;5.15;;;2.72;;
70850;SDS011;58475;49.662;9.636;2022-07-29T01:36:16;4.43;;;2.50;;
70850;SDS011;58475;49.662;9.636;2022-07-29T01:38:53;5.50;;;2.60;;
70850;SDS011;58475;49.662;9.636;2022-07-29T01:41:24;8.00;;;2.80;;
70850;SDS011;58475;49.662;9.636;2022-07-29T01:43:56;6.43;;;2.90;;
70850;SDS011;58475;49.662;9.636;2022-07-29T01:46:29;5.40;;;2.50;;
70850;SDS011;58475;49.662;9.636;2022-07-29T01:49:00;6.72;;;3.10;;
70850;SDS011;58475;49.662;9.636;2022-07-29T01:51:33;6.15;;;2.80;;
70850;SDS011;58475;49.662;9.636;2022-07-29T01:54:07;5.13;;;2.80;;
70850;SDS011;58475;49.662;9.636;2022-07-29T01:56:35;5.53;;;3.00;;
70850;SDS011;58475;49.662;9.636;2022-07-29T01:59:03;5.57;;;2.95;;
70850;SDS011;58475;49.662;9.636;2022-07-29T02:01:31;6.65;;;3.00;;
70850;SDS011;58475;49.662;9.636;2022-07-29T02:03:57;5.88;;;2.95;;
70850;SDS011;58475;49.662;9.636;2022-07-29T02:06:26;5.13;;;2.97;;
70850;SDS011;58475;49.662;9.636;2022-07-29T02:08:54;5.35;;;2.83;;
70850;SDS011;58475;49.662;9.636;2022-07-29T02:11:23;7.43;;;2.97;;
70850;SDS011;58475;49.662;9.636;2022-07-29T02:13:50;8.82;;;2.90;;
70850;SDS011;58475;49.662;9.636;2022-07-29T02:16:18;5.40;;;3.10;;
70850;SDS011;58475;49.662;9.636;2022-07-29T02:18:47;5.15;;;2.70;;
70850;SDS011;58475;49.662;9.636;2022-07-29T02:21:19;6.23;;;3.33;;
70850;SDS011;58475;49.662;9.636;2022-07-29T02:23:49;5.03;;;2.72;;
70850;SDS011;58475;49.662;9.636;2022-07-29T02:26:16;9.10;;;3.17;;
70850;SDS011;58475;49.662;9.636;2022-07-29T02:28:42;5.80;;;2.90;;
70850;SDS011;58475;49.662;9.636;2022-07-29T02:31:09;5.88;;;3.30;;
70850;SDS011;58475;49.662;9.636;2022-07-29T02:33:36;6.18;;;2.95;;
70850;SDS011;58475;49.662;9.636;2022-07-29T02:36:03;6.25;;;3.13;;
70850;SDS011;58475;49.662;9.636;2022-07-29T02:38:29;6.47;;;3.20;;
70850;SDS011;58475;49.662;9.636;2022-07-29T02:41:16;6.60;;;3.05;;
70850;SDS011;58475;49.662;9.636;2022-07-29T02:43:44;6.60;;;3.20;;
70850;SDS011;58475;49.662;9.636;2022-07-29T02:46:13;6.03;;;3.10;;
70850;SDS011;58475;49.662;9.636;2022-07-29T02:48:44;7.22;;;2.83;;
70850;SDS011;58475;49.662;9.636;2022-07-29T02:51:23;4.60;;;2.80;;
70850;SDS011;58475;49.662;9.636;2022-07-29T02:53:54;5.70;;;3.35;;
70850;SDS011;58475;49.662;9.636;2022-07-29T02:56:23;10.95;;;3.25;;
70850;SDS011;58475;49.662;9.636;2022-07-29T02:58:57;6.25;;;3.33;;
70850;SDS011;58475;49.662;9.636;2022-07-29T03:01:24;6.28;;;3.17;;
70850;SDS011;58475;49.662;9.636;2022-07-29T03:03:54;6.70;;;3.00;;
70850;SDS011;58475;49.662;9.636;2022-07-29T03:06:21;6.70;;;3.00;;
70850;SDS011;58475;49.662;9.636;2022-07-29T03:08:48;6.25;;;3.17;;
70850;SDS011;58475;49.662;9.636;2022-07-29T03:11:15;7.43;;;3.20;;
70850;SDS011;58475;49.662;9.636;2022-07-29T03:13:42;6.95;;;3.33;;
70850;SDS011;58475;49.662;9.636;2022-07-29T03:16:08;5.47;;;3.22;;
70850;SDS011;58475;49.662;9.636;2022-07-29T03:18:35;5.50;;;2.92;;
70850;SDS011;58475;49.662;9.636;2022-07-29T03:21:01;5.32;;;2.88;;
70850;SDS011;58475;49.662;9.636;2022-07-29T03:23:28;6.68;;;3.00;;
70850;SDS011;58475;49.662;9.636;2022-07-29T03:25:53;7.75;;;3.30;;
70850;SDS011;58475;49.662;9.636;2022-07-29T03:28:19;7.75;;;3.53;;
70850;SDS011;58475;49.662;9.636;2022-07-29T03:30:45;6.03;;;3.15;;
70850;SDS011;58475;49.662;9.636;2022-07-29T03:33:11;5.70;;;3.22;;
70850;SDS011;58475;49.662;9.636;2022-07-29T03:35:37;6.97;;;3.40;;
70850;SDS011;58475;49.662;9.636;2022-07-29T03:38:02;6.35;;;3.08;;
70850;SDS011;58475;49.662;9.636;2022-07-29T03:40:49;6.28;;;3.30;;
70850;SDS011;58475;49.662;9.636;2022-07-29T03:43:16;7.10;;;3.40;;
70850;SDS011;58475;49.662;9.636;2022-07-29T03:45:44;7.18;;;3.42;;
70850;SDS011;58475;49.662;9.636;2022-07-29T03:48:13;7.13;;;3.40;;
70850;SDS011;58475;49.662;9.636;2022-07-29T03:50:40;7.50;;;3.50;;
70850;SDS011;58475;49.662;9.636;2022-07-29T03:53:06;6.28;;;3.38;;
70850;SDS011;58475;49.662;9.636;2022-07-29T03:55:37;9.23;;;3.55;;
70850;SDS011;58475;49.662;9.636;2022-07-29T03:58:06;6.43;;;3.20;;
70850;SDS011;58475;49.662;9.636;2022-07-29T04:00:33;6.30;;;3.10;;
70850;SDS011;58475;49.662;9.636;2022-07-29T04:03:00;5.90;;;3.38;;
70850;SDS011;58475;49.662;9.636;2022-07-29T04:05:26;5.85;;;3.40;;
70850;SDS011;58475;49.662;9.636;2022-07-29T04:07:52;5.75;;;3.30;;
70850;SDS011;58475;49.662;9.636;2022-07-29T04:10:17;6.13;;;3.30;;
70850;SDS011;58475;49.662;9.636;2022-07-29T04:12:44;6.53;;;3.22;;
70850;SDS011;58475;49.662;9.636;2022-07-29T04:15:10;6.70;;;3.55;;
70850;SDS011;58475;49.662;9.636;2022-07-29T04:17:35;7.13;;;3.45;;
70850;SDS011;58475;49.662;9.636;2022-07-29T04:20:01;5.25;;;3.05;;
70850;SDS011;58475;49.662;9.636;2022-07-29T04:22:27;5.55;;;3.40;;
70850;SDS011;58475;49.662;9.636;2022-07-29T04:24:52;6.13;;;3.20;;
70850;SDS011;58475;49.662;9.636;2022-07-29T04:27:17;6.15;;;3.22;;
70850;SDS011;58475;49.662;9.636;2022-07-29T04:29:43;6.40;;;3.20;;
70850;SDS011;58475;49.662;9.636;2022-07-29T04:32:08;7.32;;;3.38;;
70850;SDS011;58475;49.662;9.636;2022-07-29T04:34:34;6.15;;;3.30;;
70850;SDS011;58475;49.662;9.636;2022-07-29T04:36:59;7.47;;;3.35;;
70850;SDS011;58475;49.662;9.636;2022-07-29T04:39:25;6.60;;;3.60;;
70850;SDS011;58475;49.662;9.636;2022-07-29T04:41:51;8.13;;;4.10;;
70850;SDS011;58475;49.662;9.636;2022-07-29T04:44:16;6.50;;;3.55;;
70850;SDS011;58475;49.662;9.636;2022-07-29T04:46:42;8.57;;;3.22;;
70850;SDS011;58475;49.662;9.636;2022-07-29T04:49:07;6.13;;;3.58;;
70850;SDS011;58475;49.662;9.636;2022-07-29T04:51:33;5.80;;;3.20;;
70850;SDS011;58475;49.662;9.636;2022-07-29T04:53:59;6.38;;;3.60;;
70850;SDS011;58475;49.662;9.636;2022-07-29T04:56:25;5.80;;;3.33;;
70850;SDS011;58475;49.662;9.636;2022-07-29T04:58:50;6.03;;;3.20;;
70850;SDS011;58475;49.662;9.636;2022-07-29T05:01:15;6.85;;;3.10;;
70850;SDS011;58475;49.662;9.636;2022-07-29T05:03:41;8.70;;;3.45;;
70850;SDS011;58475;49.662;9.636;2022-07-29T05:06:06;7.45;;;3.10;;
70850;SDS011;58475;49.662;9.636;2022-07-29T05:08:32;6.30;;;3.30;;
70850;SDS011;58475;49.662;9.636;2022-07-29T05:10:57;7.40;;;3.20;;
70850;SDS011;58475;49.662;9.636;2022-07-29T05:13:23;6.78;;;3.08;;
70850;SDS011;58475;49.662;9.636;2022-07-29T05:15:48;6.18;;;3.13;;
70850;SDS011;58475;49.662;9.636;2022-07-29T05:18:14;6.03;;;3.20;;
70850;SDS011;58475;49.662;9.636;2022-07-29T05:20:40;8.63;;;3.08;;
70850;SDS011;58475;49.662;9.636;2022-07-29T05:23:05;6.55;;;2.80;;
70850;SDS011;58475;49.662;9.636;2022-07-29T05:25:30;6.50;;;3.13;;
70850;SDS011;58475;49.662;9.636;2022-07-29T05:27:56;6.57;;;3.03;;
70850;SDS011;58475;49.662;9.636;2022-07-29T05:30:22;6.82;;;3.13;;
70850;SDS011;58475;49.662;9.636;2022-07-29T05:32:47;5.78;;;2.83;;
70850;SDS011;58475;49.662;9.636;2022-07-29T05:35:13;5.50;;;3.03;;
70850;SDS011;58475;49.662;9.636;2022-07-29T05:37:39;6.70;;;3.10;;
70850;SDS011;58475;49.662;9.636;2022-07-29T05:40:05;6.30;;;2.90;;
70850;SDS011;58475;49.662;9.636;2022-07-29T05:42:31;5.72;;;2.97;;
70850;SDS011;58475;49.662;9.636;2022-07-29T05:44:57;6.93;;;3.20;;
70850;SDS011;58475;49.662;9.636;2022-07-29T05:47:23;7.18;;;2.78;;
70850;SDS011;58475;49.662;9.636;2022-07-29T05:49:49;8.63;;;3.03;;
70850;SDS011;58475;49.662;9.636;2022-07-29T05:52:15;7.50;;;3.13;;
70850;SDS011;58475;49.662;9.636;2022-07-29T05:54:40;7.80;;;3.20;;
70850;SDS011;58475;49.662;9.636;2022-07-29T05:57:06;6.22;;;3.05;;
70850;SDS011;58475;49.662;9.636;2022-07-29T05:59:35;8.13;;;3.30;;
70850;SDS011;58475;49.662;9.636;2022-07-29T06:02:01;10.10;;;3.58;;
70850;SDS011;58475;49.662;9.636;2022-07-29T06:04:26;7.88;;;3.03;;
70850;SDS011;58475;49.662;9.636;2022-07-29T06:06:52;7.63;;;3.10;;
70850;SDS011;58475;49.662;9.636;2022-07-29T06:09:17;8.10;;;3.20;;
70850;SDS011;58475;49.662;9.636;2022-07-29T06:11:43;8.75;;;3.10;;
70850;SDS011;58475;49.662;9.636;2022-07-29T06:14:08;8.23;;;3.38;;
70850;SDS011;58475;49.662;9.636;2022-07-29T06:16:33;7.28;;;3.05;;
70850;SDS011;58475;49.662;9.636;2022-07-29T06:18:59;7.50;;;3.03;;
70850;SDS011;58475;49.662;9.636;2022-07-29T06:21:24;7.03;;;3.25;;
70850;SDS011;58475;49.662;9.636;2022-07-29T06:23:50;7.10;;;3.05;;
70850;SDS011;58475;49.662;9.636;2022-07-29T06:26:15;8.45;;;3.10;;
70850;SDS011;58475;49.662;9.636;2022-07-29T06:28:41;8.02;;;3.50;;
70850;SDS011;58475;49.662;9.636;2022-07-29T06:31:06;7.80;;;3.30;;
70850;SDS011;58475;49.662;9.636;2022-07-29T06:33:32;7.70;;;3.42;;
70850;SDS011;58475;49.662;9.636;2022-07-29T06:35:58;8.90;;;3.30;;
70850;SDS011;58475;49.662;9.636;2022-07-29T06:38:23;6.63;;;3.20;;
70850;SDS011;58475;49.662;9.636;2022-07-29T06:40:49;7.45;;;3.35;;
70850;SDS011;58475;49.662;9.636;2022-07-29T06:43:36;10.15;;;3.42;;
70850;SDS011;58475;49.662;9.636;2022-07-29T06:46:04;6.70;;;3.10;;
70850;SDS011;58475;49.662;9.636;2022-07-29T06:48:31;6.28;;;3.08;;
70850;SDS011;58475;49.662;9.636;2022-07-29T06:50:58;6.95;;;3.53;;
70850;SDS011;58475;49.662;9.636;2022-07-29T06:53:23;8.88;;;3.22;;
70850;SDS011;58475;49.662;9.636;2022-07-29T06:55:49;8.98;;;3.60;;
70850;SDS011;58475;49.662;9.636;2022-07-29T06:58:15;7.38;;;3.35;;
70850;SDS011;58475;49.662;9.636;2022-07-29T07:00:48;8.55;;;3.35;;
70850;SDS011;58475;49.662;9.636;2022-07-29T07:03:14;8.50;;;3.22;;
70850;SDS011;58475;49.662;9.636;2022-07-29T07:05:40;7.70;;;3.40;;
70850;SDS011;58475;49.662;9.636;2022-07-29T07:08:06;12.40;;;3.58;;
70850;SDS011;58475;49.662;9.636;2022-07-29T07:10:32;8.65;;;3.13;;
70850;SDS011;58475;49.662;9.636;2022-07-29T07:12:57;6.13;;;3.22;;
70850;SDS011;58475;49.662;9.636;2022-07-29T07:15:23;6.45;;;3.38;;
70850;SDS011;58475;49.662;9.636;2022-07-29T07:17:49;7.07;;;3.25;;
70850;SDS011;58475;49.662;9.636;2022-07-29T07:20:15;7.30;;;3.13;;
70850;SDS011;58475;49.662;9.636;2022-07-29T07:22:42;7.45;;;3.10;;
70850;SDS011;58475;49.662;9.636;2022-07-29T07:25:07;6.80;;;3.20;;
70850;SDS011;58475;49.662;9.636;2022-07-29T07:27:33;10.50;;;3.30;;
70850;SDS011;58475;49.662;9.636;2022-07-29T07:30:00;6.93;;;3.33;;
70850;SDS011;58475;49.662;9.636;2022-07-29T07:32:26;7.60;;;3.17;;
70850;SDS011;58475;49.662;9.636;2022-07-29T07:34:52;6.75;;;3.10;;
70850;SDS011;58475;49.662;9.636;2022-07-29T07:37:17;8.05;;;3.15;;
70850;SDS011;58475;49.662;9.636;2022-07-29T07:39:45;9.68;;;3.13;;
70850;SDS011;58475;49.662;9.636;2022-07-29T07:42:10;7.47;;;3.25;;
70850;SDS011;58475;49.662;9.636;2022-07-29T07:44:38;8.93;;;3.17;;
70850;SDS011;58475;49.662;9.636;2022-07-29T07:47:04;6.75;;;3.00;;
70850;SDS011;58475;49.662;9.636;2022-07-29T07:49:29;8.68;;;3.10;;
70850;SDS011;58475;49.662;9.636;2022-07-29T07:51:55;8.20;;;3.40;;
70850;SDS011;58475;49.662;9.636;2022-07-29T07:54:20;7.60;;;3.03;;
70850;SDS011;58475;49.662;9.636;2022-07-29T07:56:46;9.13;;;3.38;;
70850;SDS011;58475;49.662;9.636;2022-07-29T07:59:13;7.15;;;3.10;;
70850;SDS011;58475;49.662;9.636;2022-07-29T08:01:39;8.05;;;3.28;;
70850;SDS011;58475;49.662;9.636;2022-07-29T08:04:04;7.45;;;3.13;;
70850;SDS011;58475;49.662;9.636;2022-07-29T08:06:30;7.22;;;3.13;;
70850;SDS011;58475;49.662;9.636;2022-07-29T08:08:55;7.18;;;3.25;;
70850;SDS011;58475;49.662;9.636;2022-07-29T08:11:21;9.73;;;3.45;;
70850;SDS011;58475;49.662;9.636;2022-07-29T08:13:46;7.55;;;3.03;;
70850;SDS011;58475;49.662;9.636;2022-07-29T08:16:12;6.63;;;3.20;;
70850;SDS011;58475;49.662;9.636;2022-07-29T08:18:38;6.72;;;2.90;;
70850;SDS011;58475;49.662;9.636;2022-07-29T08:21:05;7.78;;;3.10;;
70850;SDS011;58475;49.662;9.636;2022-07-29T08:23:31;7.72;;;3.75;;
70850;SDS011;58475;49.662;9.636;2022-07-29T08:26:03;6.93;;;2.92;;
70850;SDS011;58475;49.662;9.636;2022-07-29T08:28:35;4.82;;;2.95;;
70850;SDS011;58475;49.662;9.636;2022-07-29T08:31:05;8.40;;;3.25;;
70850;SDS011;58475;49.662;9.636;2022-07-29T08:33:31;6.78;;;2.95;;
70850;SDS011;58475;49.662;9.636;2022-07-29T08:35:57;7.85;;;3.10;;
70850;SDS011;58475;49.662;9.636;2022-07-29T08:38:23;6.43;;;3.10;;
70850;SDS011;58475;49.662;9.636;2022-07-29T08:40:48;6.50;;;3.30;;
70850;SDS011;58475;49.662;9.636;2022-07-29T08:43:14;7.43;;;3.28;;
70850;SDS011;58475;49.662;9.636;2022-07-29T08:45:44;8.75;;;3.30;;
70850;SDS011;58475;49.662;9.636;2022-07-29T08:48:14;5.93;;;3.40;;
70850;SDS011;58475;49.662;9.636;2022-07-29T08:50:41;6.88;;;3.30;;
70850;SDS011;58475;49.662;9.636;2022-07-29T08:53:11;27.27;;;6.30;;
70850;SDS011;58475;49.662;9.636;2022-07-29T08:55:42;14.00;;;4.72;;
70850;SDS011;58475;49.662;9.636;2022-07-29T08:58:08;16.38;;;5.25;;
70850;SDS011;58475;49.662;9.636;2022-07-29T09:00:35;14.80;;;5.75;;
70850;SDS011;58475;49.662;9.636;2022-07-29T09:03:02;16.85;;;5.97;;
70850;SDS011;58475;49.662;9.636;2022-07-29T09:05:29;13.77;;;5.53;;
70850;SDS011;58475;49.662;9.636;2022-07-29T09:07:56;11.05;;;5.15;;
70850;SDS011;58475;49.662;9.636;2022-07-29T09:10:22;15.27;;;6.32;;
70850;SDS011;58475;49.662;9.636;2022-07-29T09:12:48;13.65;;;6.70;;
70850;SDS011;58475;49.662;9.636;2022-07-29T09:15:14;14.57;;;5.90;;
70850;SDS011;58475;49.662;9.636;2022-07-29T09:20:13;10.40;;;5.55;;
70850;SDS011;58475;49.662;9.636;2022-07-29T09:22:40;8.40;;;5.00;;
70850;SDS011;58475;49.662;9.636;2022-07-29T09:25:06;7.90;;;4.50;;
70850;SDS011;58475;49.662;9.636;2022-07-29T09:27:32;9.40;;;4.60;;
70850;SDS011;58475;49.662;9.636;2022-07-29T09:30:03;9.13;;;5.28;;
70850;SDS011;58475;49.662;9.636;2022-07-29T09:32:54;7.80;;;4.75;;
70850;SDS011;58475;49.662;9.636;2022-07-29T09:35:21;12.10;;;4.55;;
70850;SDS011;58475;49.662;9.636;2022-07-29T09:37:48;7.35;;;4.50;;
70850;SDS011;58475;49.662;9.636;2022-07-29T09:40:15;7.50;;;4.47;;
70850;SDS011;58475;49.662;9.636;2022-07-29T09:42:42;6.43;;;4.18;;
70850;SDS011;58475;49.662;9.636;2022-07-29T09:45:08;8.57;;;3.97;;
70850;SDS011;58475;49.662;9.636;2022-07-29T09:50:39;10.07;;;4.45;;
70850;SDS011;58475;49.662;9.636;2022-07-29T09:53:06;7.70;;;4.05;;
70850;SDS011;58475;49.662;9.636;2022-07-29T09:55:31;9.77;;;4.53;;
70850;SDS011;58475;49.662;9.636;2022-07-29T09:58:18;8.73;;;4.05;;
70850;SDS011;58475;49.662;9.636;2022-07-29T10:00:45;7.50;;;4.13;;
70850;SDS011;58475;49.662;9.636;2022-07-29T10:03:13;8.48;;;4.20;;
70850;SDS011;58475;49.662;9.636;2022-07-29T10:05:39;7.43;;;3.95;;
70850;SDS011;58475;49.662;9.636;2022-07-29T10:08:05;7.07;;;3.88;;
70850;SDS011;58475;49.662;9.636;2022-07-29T10:10:36;7.60;;;3.72;;
70850;SDS011;58475;49.662;9.636;2022-07-29T10:13:05;6.80;;;3.45;;
70850;SDS011;58475;49.662;9.636;2022-07-29T10:15:33;7.57;;;3.40;;
70850;SDS011;58475;49.662;9.636;2022-07-29T10:18:04;7.13;;;3.10;;
70850;SDS011;58475;49.662;9.636;2022-07-29T10:20:30;5.65;;;3.35;;
70850;SDS011;58475;49.662;9.636;2022-07-29T10:22:56;7.45;;;3.22;;
70850;SDS011;58475;49.662;9.636;2022-07-29T10:25:22;5.82;;;2.72;;
70850;SDS011;58475;49.662;9.636;2022-07-29T10:27:48;6.28;;;2.83;;
70850;SDS011;58475;49.662;9.636;2022-07-29T10:30:16;5.75;;;3.00;;
70850;SDS011;58475;49.662;9.636;2022-07-29T10:32:54;4.50;;;2.70;;
70850;SDS011;58475;49.662;9.636;2022-07-29T10:46:23;4.90;;;2.80;;
70850;SDS011;58475;49.662;9.636;2022-07-29T10:54:15;5.63;;;2.80;;
70850;SDS011;58475;49.662;9.636;2022-07-29T10:56:41;7.00;;;2.90;;
70850;SDS011;58475;49.662;9.636;2022-07-29T11:01:49;6.07;;;3.08;;
70850;SDS011;58475;49.662;9.636;2022-07-29T11:07:10;5.25;;;2.97;;
70850;SDS011;58475;49.662;9.636;2022-07-29T11:09:37;4.63;;;2.80;;
70850;SDS011;58475;49.662;9.636;2022-07-29T11:12:03;4.70;;;2.70;;
70850;SDS011;58475;49.662;9.636;2022-07-29T11:17:25;6.75;;;2.72;;
70850;SDS011;58475;49.662;9.636;2022-07-29T11:19:50;6.38;;;3.30;;
70850;SDS011;58475;49.662;9.636;2022-07-29T11:22:32;6.20;;;3.00;;
70850;SDS011;58475;49.662;9.636;2022-07-29T11:25:15;4.80;;;2.80;;
70850;SDS011;58475;49.662;9.636;2022-07-29T11:27:41;5.90;;;3.00;;
70850;SDS011;58475;49.662;9.636;2022-07-29T11:30:07;5.78;;;3.30;;
70850;SDS011;58475;49.662;9.636;2022-07-29T11:32:41;5.40;;;2.80;;
70850;SDS011;58475;49.662;9.636;2022-07-29T11:37:47;7.03;;;3.00;;
70850;SDS011;58475;49.662;9.636;2022-07-29T11:43:54;5.22;;;2.95;;
70850;SDS011;58475;49.662;9.636;2022-07-29T11:46:43;6.65;;;2.85;;
70850;SDS011;58475;49.662;9.636;2022-07-29T11:49:08;6.30;;;3.20;;
70850;SDS011;58475;49.662;9.636;2022-07-29T11:51:35;5.95;;;3.20;;
70850;SDS011;58475;49.662;9.636;2022-07-29T11:54:02;6.70;;;3.15;;
70850;SDS011;58475;49.662;9.636;2022-07-29T11:56:29;6.65;;;3.50;;
70850;SDS011;58475;49.662;9.636;2022-07-29T11:59:06;7.20;;;2.67;;
70850;SDS011;58475;49.662;9.636;2022-07-29T12:01:34;7.93;;;3.35;;
70850;SDS011;58475;49.662;9.636;2022-07-29T12:04:06;9.00;;;3.50;;
70850;SDS011;58475;49.662;9.636;2022-07-29T12:06:35;5.05;;;2.97;;
70850;SDS011;58475;49.662;9.636;2022-07-29T12:09:06;5.72;;;2.90;;
70850;SDS011;58475;49.662;9.636;2022-07-29T12:11:32;9.77;;;3.35;;
70850;SDS011;58475;49.662;9.636;2022-07-29T12:13:58;6.38;;;3.22;;
70850;SDS011;58475;49.662;9.636;2022-07-29T12:16:33;8.90;;;3.15;;
70850;SDS011;58475;49.662;9.636;2022-07-29T12:19:01;5.60;;;3.20;;
70850;SDS011;58475;49.662;9.636;2022-07-29T12:21:28;5.30;;;3.05;;
70850;SDS011;58475;49.662;9.636;2022-07-29T12:24:13;6.93;;;3.05;;
70850;SDS011;58475;49.662;9.636;2022-07-29T12:26:52;5.55;;;3.70;;
70850;SDS011;58475;49.662;9.636;2022-07-29T12:29:19;6.88;;;3.15;;
70850;SDS011;58475;49.662;9.636;2022-07-29T12:31:45;6.55;;;3.22;;
70850;SDS011;58475;49.662;9.636;2022-07-29T12:34:12;6.78;;;3.30;;
70850;SDS011;58475;49.662;9.636;2022-07-29T12:36:38;7.50;;;3.15;;
70850;SDS011;58475;49.662;9.636;2022-07-29T12:39:05;12.27;;;4.57;;
70850;SDS011;58475;49.662;9.636;2022-07-29T12:41:31;10.95;;;4.10;;
70850;SDS011;58475;49.662;9.636;2022-07-29T12:43:57;8.13;;;4.20;;
70850;SDS011;58475;49.662;9.636;2022-07-29T12:46:22;6.75;;;4.40;;
70850;SDS011;58475;49.662;9.636;2022-07-29T12:48:50;9.48;;;4.53;;
70850;SDS011;58475;49.662;9.636;2022-07-29T12:51:28;8.77;;;5.35;;
70850;SDS011;58475;49.662;9.636;2022-07-29T12:54:13;9.68;;;4.72;;
70850;SDS011;58475;49.662;9.636;2022-07-29T12:56:40;10.02;;;5.80;;
70850;SDS011;58475;49.662;9.636;2022-07-29T13:01:42;9.38;;;5.18;;
70850;SDS011;58475;49.662;9.636;2022-07-29T13:04:08;12.90;;;6.05;;
70850;SDS011;58475;49.662;9.636;2022-07-29T13:06:38;11.85;;;5.78;;
70850;SDS011;58475;49.662;9.636;2022-07-29T13:11:37;14.07;;;6.70;;
70850;SDS011;58475;49.662;9.636;2022-07-29T13:14:03;14.32;;;6.68;;
70850;SDS011;58475;49.662;9.636;2022-07-29T13:16:29;14.73;;;7.60;;
70850;SDS011;58475;49.662;9.636;2022-07-29T13:19:10;17.45;;;8.20;;
70850;SDS011;58475;49.662;9.636;2022-07-29T13:21:36;14.32;;;7.70;;
70850;SDS011;58475;49.662;9.636;2022-07-29T13:24:02;15.02;;;7.30;;
70850;SDS011;58475;49.662;9.636;2022-07-29T13:26:27;12.82;;;7.10;;
70850;SDS011;58475;49.662;9.636;2022-07-29T13:28:54;13.10;;;6.63;;
70850;SDS011;58475;49.662;9.636;2022-07-29T13:31:19;12.07;;;7.45;;
70850;SDS011;58475;49.662;9.636;2022-07-29T13:33:45;10.20;;;5.72;;
70850;SDS011;58475;49.662;9.636;2022-07-29T13:36:10;12.10;;;6.78;;
70850;SDS011;58475;49.662;9.636;2022-07-29T13:38:35;10.27;;;6.78;;
70850;SDS011;58475;49.662;9.636;2022-07-29T13:41:00;11.82;;;6.38;;
70850;SDS011;58475;49.662;9.636;2022-07-29T13:43:26;8.52;;;6.20;;
70850;SDS011;58475;49.662;9.636;2022-07-29T13:45:51;11.95;;;6.93;;
70850;SDS011;58475;49.662;9.636;2022-07-29T13:48:17;9.75;;;5.97;;
70850;SDS011;58475;49.662;9.636;2022-07-29T13:50:42;11.10;;;6.00;;
70850;SDS011;58475;49.662;9.636;2022-07-29T13:53:08;9.40;;;6.13;;
70850;SDS011;58475;49.662;9.636;2022-07-29T13:55:33;12.05;;;6.47;;
70850;SDS011;58475;49.662;9.636;2022-07-29T13:57:59;11.25;;;7.57;;
70850;SDS011;58475;49.662;9.636;2022-07-29T14:00:25;9.02;;;5.65;;
70850;SDS011;58475;49.662;9.636;2022-07-29T14:02:51;9.70;;;5.57;;
70850;SDS011;58475;49.662;9.636;2022-07-29T14:05:17;8.35;;;5.85;;
70850;SDS011;58475;49.662;9.636;2022-07-29T14:07:42;10.15;;;6.63;;
70850;SDS011;58475;49.662;9.636;2022-07-29T14:10:08;8.30;;;5.95;;
70850;SDS011;58475;49.662;9.636;2022-07-29T14:12:34;8.35;;;5.88;;
70850;SDS011;58475;49.662;9.636;2022-07-29T14:14:59;11.43;;;6.47;;
70850;SDS011;58475;49.662;9.636;2022-07-29T14:17:24;9.95;;;6.20;;
70850;SDS011;58475;49.662;9.636;2022-07-29T14:19:50;10.98;;;6.50;;
70850;SDS011;58475;49.662;9.636;2022-07-29T14:22:15;9.63;;;5.68;;
70850;SDS011;58475;49.662;9.636;2022-07-29T14:24:40;9.38;;;5.70;;
70850;SDS011;58475;49.662;9.636;2022-07-29T14:27:06;9.90;;;5.90;;
70850;SDS011;58475;49.662;9.636;2022-07-29T14:29:32;9.80;;;6.50;;
70850;SDS011;58475;49.662;9.636;2022-07-29T14:31:58;6.55;;;4.43;;
70850;SDS011;58475;49.662;9.636;2022-07-29T14:34:24;8.00;;;5.18;;
70850;SDS011;58475;49.662;9.636;2022-07-29T14:36:49;7.10;;;5.22;;
70850;SDS011;58475;49.662;9.636;2022-07-29T14:39:14;9.35;;;6.40;;
70850;SDS011;58475;49.662;9.636;2022-07-29T14:41:41;11.75;;;5.72;;
70850;SDS011;58475;49.662;9.636;2022-07-29T14:44:06;7.75;;;5.15;;
70850;SDS011;58475;49.662;9.636;2022-07-29T14:46:32;7.50;;;5.43;;
70850;SDS011;58475;49.662;9.636;2022-07-29T14:48:57;9.50;;;5.95;;
70850;SDS011;58475;49.662;9.636;2022-07-29T14:51:23;8.60;;;6.35;;
70850;SDS011;58475;49.662;9.636;2022-07-29T14:53:48;9.65;;;6.20;;
70850;SDS011;58475;49.662;9.636;2022-07-29T14:56:13;9.50;;;6.30;;
70850;SDS011;58475;49.662;9.636;2022-07-29T14:58:39;9.60;;;6.05;;
70850;SDS011;58475;49.662;9.636;2022-07-29T15:01:04;8.02;;;6.38;;
70850;SDS011;58475;49.662;9.636;2022-07-29T15:03:29;7.80;;;5.88;;
70850;SDS011;58475;49.662;9.636;2022-07-29T15:05:55;10.80;;;6.07;;
70850;SDS011;58475;49.662;9.636;2022-07-29T15:08:20;8.35;;;6.43;;
70850;SDS011;58475;49.662;9.636;2022-07-29T15:10:46;8.23;;;6.15;;
70850;SDS011;58475;49.662;9.636;2022-07-29T15:13:11;8.88;;;5.90;;
70850;SDS011;58475;49.662;9.636;2022-07-29T15:15:37;8.35;;;6.00;;
70850;SDS011;58475;49.662;9.636;2022-07-29T15:18:03;10.57;;;6.72;;
70850;SDS011;58475;49.662;9.636;2022-07-29T15:20:28;10.25;;;6.90;;
70850;SDS011;58475;49.662;9.636;2022-07-29T15:22:54;10.30;;;6.72;;
70850;SDS011;58475;49.662;9.636;2022-07-29T15:25:21;10.73;;;7.03;;
70850;SDS011;58475;49.662;9.636;2022-07-29T15:27:47;11.20;;;7.03;;
70850;SDS011;58475;49.662;9.636;2022-07-29T15:30:12;9.32;;;7.03;;
70850;SDS011;58475;49.662;9.636;2022-07-29T15:32:40;9.43;;;7.25;;